createdAt,value
2018-03-28T00:02:21.385Z,99808.72
2018-03-28T00:04:48.906Z,99789.70
2018-03-28T00:07:16.421Z,99799.88
2018-03-28T00:09:43.919Z,99785.92
2018-03-28T00:12:11.427Z,99778.32
2018-03-28T00:14:38.925Z,99772.83
2018-03-28T00:17:06.429Z,99781.28
2018-03-28T00:19:33.917Z,99783.44
2018-03-28T00:22:01.413Z,99787.20
2018-03-28T00:24:28.890Z,99779.17
2018-03-28T00:26:56.400Z,99771.58
2018-03-28T00:29:23.892Z,99772.86
2018-03-28T00:31:51.370Z,99773.70
2018-03-28T00:34:18.866Z,99766.11
2018-03-28T00:36:46.367Z,99756.34
2018-03-28T00:39:13.878Z,99773.68
2018-03-28T00:41:41.350Z,99747.92
2018-03-28T00:44:08.883Z,99746.27
2018-03-28T00:46:36.402Z,99740.80
2018-03-28T00:49:03.927Z,99728.98
2018-03-28T00:51:37.261Z,99726.00
2018-03-28T00:54:04.758Z,99729.00
2018-03-28T00:56:32.250Z,99728.12
2018-03-28T00:58:59.752Z,99726.05
2018-03-28T01:01:27.241Z,99727.76
2018-03-28T01:03:54.737Z,99720.16
2018-03-28T01:06:22.198Z,99718.04
2018-03-28T01:08:49.669Z,99705.81
2018-03-28T01:11:17.198Z,99702.84
2018-03-28T01:13:44.689Z,99713.00
2018-03-28T01:16:12.166Z,99710.03
2018-03-28T01:18:39.676Z,99710.07
2018-03-28T01:21:07.161Z,99707.09
2018-03-28T01:23:34.637Z,99707.92
2018-03-28T01:26:02.119Z,99704.56
2018-03-28T01:28:29.663Z,99711.73
2018-03-28T01:30:57.163Z,99691.90
2018-03-28T01:33:24.659Z,99671.64
2018-03-28T01:35:52.186Z,99673.79
2018-03-28T01:38:19.663Z,99673.38
2018-03-28T01:40:47.181Z,99678.03
2018-03-28T01:43:14.702Z,99675.92
2018-03-28T01:45:42.217Z,99682.25
2018-03-28T01:48:09.698Z,99684.38
2018-03-28T01:50:37.188Z,99687.77
2018-03-28T01:53:04.685Z,99683.95
2018-03-28T01:55:32.205Z,99675.53
2018-03-28T01:57:59.720Z,99678.08
2018-03-28T02:00:27.416Z,99670.88
2018-03-28T02:02:55.135Z,99664.95
2018-03-28T02:05:22.640Z,99675.51
2018-03-28T02:07:50.156Z,99657.78
2018-03-28T02:10:17.704Z,99664.98
2018-03-28T02:12:45.200Z,99656.91
2018-03-28T02:15:12.725Z,99659.48
2018-03-28T02:17:40.262Z,99652.73
2018-03-28T02:20:07.743Z,99646.84
2018-03-28T02:22:35.224Z,99661.19
2018-03-28T02:25:02.759Z,99647.28
2018-03-28T02:27:30.261Z,99653.16
2018-03-28T02:29:57.760Z,99647.24
2018-03-28T02:32:25.289Z,99640.09
2018-03-28T02:34:52.783Z,99638.00
2018-03-28T02:37:20.283Z,99640.52
2018-03-28T02:39:47.824Z,99628.70
2018-03-28T02:42:15.325Z,99635.44
2018-03-28T02:44:42.823Z,99638.83
2018-03-28T02:47:10.309Z,99647.28
2018-03-28T02:49:37.829Z,99646.87
2018-03-28T02:52:05.307Z,99643.89
2018-03-28T02:54:32.816Z,99643.05
2018-03-28T02:57:00.354Z,99640.48
2018-03-28T02:59:27.873Z,99644.30
2018-03-28T03:01:55.361Z,99641.33
2018-03-28T03:04:22.840Z,99647.69
2018-03-28T03:06:50.340Z,99651.91
2018-03-28T03:09:17.810Z,99646.83
2018-03-28T03:11:45.285Z,99645.14
2018-03-28T03:14:12.802Z,99642.17
2018-03-28T03:16:40.322Z,99650.20
2018-03-28T03:19:07.819Z,99634.99
2018-03-28T03:21:35.320Z,99633.30
2018-03-28T03:24:02.810Z,99630.36
2018-03-28T03:26:30.300Z,99625.69
2018-03-28T03:28:57.794Z,99621.44
2018-03-28T03:31:25.308Z,99621.86
2018-03-28T03:33:52.830Z,99621.03
2018-03-28T03:36:21.157Z,99613.84
2018-03-28T03:38:48.656Z,99623.56
2018-03-28T03:41:16.157Z,99624.38
2018-03-28T03:43:43.669Z,99619.78
2018-03-28T03:46:11.194Z,99624.42
2018-03-28T03:48:38.706Z,99620.17
2018-03-28T03:51:06.203Z,99618.92
2018-03-28T03:53:33.696Z,99622.71
2018-03-28T03:56:01.208Z,99619.75
2018-03-28T03:58:28.687Z,99614.30
2018-03-28T04:00:56.171Z,99624.39
2018-03-28T04:03:23.653Z,99618.48
2018-03-28T04:05:51.138Z,99619.27
2018-03-28T04:08:18.640Z,99618.46
2018-03-28T04:10:46.145Z,99611.69
2018-03-28T04:13:13.636Z,99607.06
2018-03-28T04:15:41.163Z,99610.41
2018-03-28T04:18:08.643Z,99607.42
2018-03-28T04:20:36.143Z,99602.80
2018-03-28T04:23:03.610Z,99605.36
2018-03-28T04:25:31.102Z,99607.44
2018-03-28T04:27:58.624Z,99588.44
2018-03-28T04:30:29.042Z,99593.47
2018-03-28T04:32:56.559Z,99593.47
2018-03-28T04:35:24.384Z,99591.38
2018-03-28T04:37:51.889Z,99593.47
2018-03-28T04:40:19.392Z,99589.23
2018-03-28T04:42:46.878Z,99593.50
2018-03-28T04:45:14.362Z,99593.88
2018-03-28T04:47:41.914Z,99592.67
2018-03-28T04:50:09.367Z,99582.12
2018-03-28T04:52:36.964Z,99584.18
2018-03-28T04:55:04.458Z,99580.80
2018-03-28T04:57:32.010Z,99584.62
2018-03-28T04:59:59.511Z,99589.69
2018-03-28T05:02:27.011Z,99583.37
2018-03-28T05:04:54.498Z,99586.77
2018-03-28T05:07:22.022Z,99579.16
2018-03-28T05:09:49.510Z,99571.16
2018-03-28T05:12:16.981Z,99567.27
2018-03-28T05:14:44.489Z,99568.11
2018-03-28T05:17:11.976Z,99573.25
2018-03-28T05:19:39.505Z,99567.34
2018-03-28T05:22:07.016Z,99564.00
2018-03-28T05:24:34.501Z,99564.39
2018-03-28T05:27:02.013Z,99563.52
2018-03-28T05:29:29.511Z,99572.38
2018-03-28T05:31:57.030Z,99568.20
2018-03-28T05:34:24.526Z,99560.61
2018-03-28T05:36:52.029Z,99564.00
2018-03-28T05:39:19.527Z,99557.23
2018-03-28T05:41:47.027Z,99562.23
2018-03-28T05:44:14.522Z,99556.78
2018-03-28T05:46:42.061Z,99547.94
2018-03-28T05:49:09.557Z,99558.03
2018-03-28T05:51:37.096Z,99554.66
2018-03-28T05:54:04.581Z,99555.06
2018-03-28T05:56:32.060Z,99557.61
2018-03-28T05:58:59.553Z,99545.28
2018-03-28T06:01:27.057Z,99551.63
2018-03-28T06:03:54.549Z,99545.31
2018-03-28T06:06:22.062Z,99540.69
2018-03-28T06:08:49.542Z,99546.63
2018-03-28T06:11:17.022Z,99545.40
2018-03-28T06:13:44.507Z,99542.05
2018-03-28T06:16:12.006Z,99537.00
2018-03-28T06:18:39.504Z,99541.13
2018-03-28T06:21:07.045Z,99530.61
2018-03-28T06:23:34.592Z,99537.78
2018-03-28T06:26:02.112Z,99539.05
2018-03-28T06:28:29.580Z,99534.75
2018-03-28T06:30:57.126Z,99541.88
2018-03-28T06:33:24.641Z,99539.75
2018-03-28T06:35:52.150Z,99544.77
2018-03-28T06:38:19.634Z,99541.48
2018-03-28T06:40:47.140Z,99547.77
2018-03-28T06:43:14.643Z,99539.75
2018-03-28T06:45:42.133Z,99540.16
2018-03-28T06:48:09.623Z,99540.95
2018-03-28T06:50:37.148Z,99535.11
2018-03-28T06:53:04.678Z,99528.73
2018-03-28T06:55:32.162Z,99535.05
2018-03-28T06:57:59.701Z,99536.31
2018-03-28T07:00:27.216Z,99538.05
2018-03-28T07:02:54.724Z,99543.53
2018-03-28T07:07:49.012Z,99546.19
2018-03-28T07:10:16.509Z,99544.07
2018-03-28T07:12:43.996Z,99545.31
2018-03-28T07:15:11.488Z,99540.16
2018-03-28T07:17:38.989Z,99542.20
2018-03-28T07:20:06.538Z,99537.23
2018-03-28T07:22:34.067Z,99540.14
2018-03-28T07:25:01.548Z,99546.58
2018-03-28T07:27:29.042Z,99544.36
2018-03-28T07:29:56.537Z,99539.27
2018-03-28T07:32:24.034Z,99544.26
2018-03-28T07:34:51.537Z,99543.86
2018-03-28T07:37:19.065Z,99545.13
2018-03-28T07:39:46.633Z,99549.77
2018-03-28T07:42:14.172Z,99537.99
2018-03-28T07:44:41.663Z,99548.09
2018-03-28T07:47:09.159Z,99544.70
2018-03-28T07:49:36.661Z,99545.41
2018-03-28T07:52:04.159Z,99545.89
2018-03-28T07:54:31.652Z,99545.94
2018-03-28T07:56:59.176Z,99547.69
2018-03-28T07:59:26.705Z,99547.66
2018-03-28T08:01:54.212Z,99543.00
2018-03-28T08:04:21.708Z,99538.73
2018-03-28T08:06:49.225Z,99534.97
2018-03-28T08:09:16.729Z,99535.32
2018-03-28T08:11:44.420Z,99536.23
2018-03-28T08:14:13.258Z,99534.05
2018-03-28T08:16:40.899Z,99528.91
2018-03-28T08:19:08.437Z,99538.24
2018-03-28T08:21:35.974Z,99531.80
2018-03-28T08:24:03.535Z,99522.02
2018-03-28T08:26:31.076Z,99518.64
2018-03-28T08:28:58.604Z,99518.28
2018-03-28T08:31:26.106Z,99520.36
2018-03-28T08:33:53.607Z,99525.84
2018-03-28T08:36:21.149Z,99527.46
2018-03-28T08:38:48.694Z,99528.63
2018-03-28T08:41:16.449Z,99529.08
2018-03-28T08:43:43.954Z,99528.54
2018-03-28T08:46:11.486Z,99528.63
2018-03-28T08:48:39.000Z,99529.75
2018-03-28T08:51:06.532Z,99532.30
2018-03-28T08:53:34.314Z,99531.88
2018-03-28T08:56:01.907Z,99531.92
2018-03-28T08:58:29.404Z,99532.43
2018-03-28T09:00:56.899Z,99535.08
2018-03-28T09:03:24.393Z,99531.63
2018-03-28T09:05:51.886Z,99532.20
2018-03-28T09:08:19.477Z,99528.25
2018-03-28T09:10:47.049Z,99528.16
2018-03-28T09:13:14.556Z,99527.27
2018-03-28T09:15:42.096Z,99520.13
2018-03-28T09:18:09.624Z,99516.70
2018-03-28T09:20:37.093Z,99514.98
2018-03-28T09:23:04.590Z,99512.50
2018-03-28T09:25:32.088Z,99511.20
2018-03-28T09:27:59.599Z,99512.89
2018-03-28T09:30:27.155Z,99513.28
2018-03-28T09:32:54.724Z,99503.33
2018-03-28T09:35:22.227Z,99506.69
2018-03-28T09:37:49.737Z,99510.61
2018-03-28T09:40:17.252Z,99508.45
2018-03-28T09:42:44.810Z,99507.37
2018-03-28T09:45:12.375Z,99514.90
2018-03-28T09:47:39.852Z,99515.85
2018-03-28T09:50:07.359Z,99516.03
2018-03-28T09:52:34.839Z,99516.11
2018-03-28T09:55:02.368Z,99514.97
2018-03-28T09:57:29.909Z,99511.73
2018-03-28T09:59:57.383Z,99507.05
2018-03-28T10:02:30.674Z,99505.37
2018-03-28T10:05:00.124Z,99503.34
2018-03-28T10:07:27.673Z,99502.75
2018-03-28T10:09:55.209Z,99503.03
2018-03-28T10:12:22.754Z,99503.79
2018-03-28T10:14:50.253Z,99504.66
2018-03-28T10:17:17.744Z,99504.72
2018-03-28T10:19:45.245Z,99504.02
2018-03-28T10:22:12.753Z,99497.58
2018-03-28T10:24:40.299Z,99491.66
2018-03-28T10:27:07.816Z,99491.91
2018-03-28T10:29:35.316Z,99497.02
2018-03-28T10:32:02.813Z,99495.87
2018-03-28T10:34:30.298Z,99494.89
2018-03-28T10:36:57.828Z,99491.41
2018-03-28T10:39:25.327Z,99480.81
2018-03-28T10:41:52.831Z,99484.93
2018-03-28T10:44:20.321Z,99482.89
2018-03-28T10:46:47.801Z,99484.04
2018-03-28T10:49:15.275Z,99487.52
2018-03-28T10:51:42.800Z,99475.66
2018-03-28T10:54:10.321Z,99479.19
2018-03-28T10:56:37.794Z,99472.09
2018-03-28T10:59:05.296Z,99474.14
2018-03-28T11:01:32.798Z,99476.56
2018-03-28T11:04:00.438Z,99481.59
2018-03-28T11:06:27.954Z,99482.49
2018-03-28T11:08:55.461Z,99480.44
2018-03-28T11:11:22.973Z,99472.47
2018-03-28T11:13:50.477Z,99466.75
2018-03-28T11:16:17.991Z,99466.84
2018-03-28T11:18:45.481Z,99467.16
2018-03-28T11:21:13.025Z,99457.03
2018-03-28T11:23:40.533Z,99455.72
2018-03-28T11:26:08.065Z,99458.24
2018-03-28T11:28:35.585Z,99464.09
2018-03-28T11:31:03.109Z,99457.30
2018-03-28T11:33:30.598Z,99459.80
2018-03-28T11:35:58.125Z,99452.19
2018-03-28T11:38:25.617Z,99453.09
2018-03-28T11:40:53.148Z,99453.00
2018-03-28T11:43:20.664Z,99450.73
2018-03-28T11:45:48.159Z,99454.97
2018-03-28T11:48:15.628Z,99449.88
2018-03-28T11:50:43.113Z,99452.95
2018-03-28T11:53:10.678Z,99455.47
2018-03-28T11:55:38.147Z,99446.95
2018-03-28T11:58:05.653Z,99451.19
2018-03-28T12:00:33.166Z,99444.77
2018-03-28T12:03:00.658Z,99434.89
2018-03-28T12:05:28.140Z,99435.34
2018-03-28T12:07:55.633Z,99433.95
2018-03-28T12:10:23.124Z,99434.95
2018-03-28T12:12:50.619Z,99430.63
2018-03-28T12:15:18.115Z,99427.64
2018-03-28T12:17:45.624Z,99427.73
2018-03-28T12:20:13.091Z,99426.81
2018-03-28T12:22:40.566Z,99420.50
2018-03-28T12:25:08.091Z,99419.52
2018-03-28T12:27:35.550Z,99425.36
2018-03-28T12:30:03.074Z,99413.63
2018-03-28T12:32:30.586Z,99414.87
2018-03-28T12:34:58.061Z,99421.52
2018-03-28T12:37:25.557Z,99419.88
2018-03-28T12:39:53.060Z,99427.72
2018-03-28T12:42:20.550Z,99430.02
2018-03-28T12:44:48.038Z,99429.50
2018-03-28T12:47:15.544Z,99415.99
2018-03-28T12:49:43.102Z,99418.99
2018-03-28T12:52:10.569Z,99421.05
2018-03-28T12:54:38.083Z,99412.14
2018-03-28T12:57:05.596Z,99408.98
2018-03-28T12:59:33.111Z,99412.14
2018-03-28T13:02:00.602Z,99414.77
2018-03-28T13:04:28.092Z,99405.50
2018-03-28T13:06:55.635Z,99403.87
2018-03-28T13:09:23.146Z,99397.10
2018-03-28T13:11:50.705Z,99396.04
2018-03-28T13:14:18.208Z,99396.12
2018-03-28T13:16:45.750Z,99392.11
2018-03-28T13:19:13.238Z,99385.70
2018-03-28T13:21:40.795Z,99380.31
2018-03-28T13:24:08.307Z,99367.95
2018-03-28T13:26:35.796Z,99367.38
2018-03-28T13:29:03.337Z,99368.90
2018-03-28T13:31:30.872Z,99364.92
2018-03-28T13:33:58.366Z,99366.20
2018-03-28T13:36:25.862Z,99367.02
2018-03-28T13:38:53.373Z,99347.22
2018-03-28T13:41:20.881Z,99347.70
2018-03-28T13:43:48.420Z,99342.22
2018-03-28T13:46:15.917Z,99331.23
2018-03-28T13:48:43.424Z,99325.45
2018-03-28T13:51:10.933Z,99316.73
2018-03-28T13:53:38.426Z,99311.11
2018-03-28T13:56:05.926Z,99315.33
2018-03-28T13:58:33.444Z,99312.56
2018-03-28T14:01:00.956Z,99306.81
2018-03-28T14:03:28.445Z,99312.69
2018-03-28T14:05:55.944Z,99313.32
2018-03-28T14:08:23.456Z,99307.05
2018-03-28T14:10:50.975Z,99304.88
2018-03-28T14:13:18.489Z,99298.62
2018-03-28T14:15:45.980Z,99298.84
2018-03-28T14:18:13.484Z,99297.72
2018-03-28T14:20:40.944Z,99295.95
2018-03-28T14:23:08.456Z,99287.37
2018-03-28T14:25:35.937Z,99281.03
2018-03-28T14:28:03.457Z,99273.62
2018-03-28T14:30:30.956Z,99276.94
2018-03-28T14:32:58.454Z,99267.97
2018-03-28T14:35:25.979Z,99264.52
2018-03-28T14:37:53.486Z,99264.16
2018-03-28T14:40:20.965Z,99261.52
2018-03-28T14:42:54.587Z,99263.90
2018-03-28T14:45:15.950Z,99250.08
2018-03-28T14:47:43.449Z,99245.00
2018-03-28T14:50:10.956Z,99239.11
2018-03-28T14:52:38.434Z,99233.41
2018-03-28T14:55:05.953Z,99232.90
2018-03-28T14:57:33.452Z,99230.81
2018-03-28T15:00:00.960Z,99209.73
2018-03-28T15:02:28.456Z,99201.84
2018-03-28T15:04:55.973Z,99196.70
2018-03-28T15:07:23.469Z,99196.64
2018-03-28T15:09:51.075Z,99194.31
2018-03-28T15:12:18.618Z,99188.96
2018-03-28T15:14:46.118Z,99188.03
2018-03-28T15:17:13.753Z,99173.20
2018-03-28T15:19:41.267Z,99168.56
2018-03-28T15:22:08.765Z,99170.53
2018-03-28T15:24:36.263Z,99167.42
2018-03-28T15:27:03.810Z,99163.20
2018-03-28T15:29:31.281Z,99157.84
2018-03-28T15:31:59.868Z,99151.83
2018-03-28T15:34:27.388Z,99150.56
2018-03-28T15:36:54.888Z,99143.94
2018-03-28T15:39:22.365Z,99141.84
2018-03-28T15:41:50.335Z,99140.84
2018-03-28T15:44:17.874Z,99139.00
2018-03-28T15:46:45.353Z,99130.89
2018-03-28T15:49:14.903Z,99122.42
2018-03-28T15:51:42.668Z,99123.38
2018-03-28T15:54:10.191Z,99119.35
2018-03-28T15:56:37.682Z,99111.00
2018-03-28T15:59:05.178Z,99116.71
2018-03-28T16:01:32.808Z,99112.56
2018-03-28T16:04:01.963Z,99105.04
2018-03-28T16:06:29.658Z,99096.15
2018-03-28T16:08:57.216Z,99091.56
2018-03-28T16:11:24.807Z,99089.92
2018-03-28T16:13:52.300Z,99074.27
2018-03-28T16:16:19.798Z,99073.63
2018-03-28T16:18:47.376Z,99068.53
2018-03-28T16:21:15.073Z,99064.25
2018-03-28T16:23:42.628Z,99061.72
2018-03-28T16:26:10.131Z,99060.67
2018-03-28T16:28:47.041Z,99060.72
2018-03-28T16:31:14.598Z,99065.47
2018-03-28T16:33:42.060Z,99058.73
2018-03-28T16:36:09.785Z,99043.95
2018-03-28T16:38:37.294Z,99034.23
2018-03-28T16:41:05.609Z,99030.87
2018-03-28T16:43:33.085Z,99025.05
2018-03-28T16:46:00.604Z,99014.56
2018-03-28T16:48:28.098Z,99012.34
2018-03-28T16:50:55.634Z,98999.70
2018-03-28T16:53:23.133Z,98991.83
2018-03-28T16:55:50.652Z,98985.09
2018-03-28T16:58:18.164Z,98976.77
2018-03-28T17:00:45.646Z,98971.77
2018-03-28T17:03:13.158Z,98970.95
2018-03-28T17:05:40.722Z,98963.33
2018-03-28T17:08:08.168Z,98966.33
2018-03-28T17:10:35.718Z,98962.94
2018-03-28T17:13:03.202Z,98963.02
2018-03-28T17:15:30.754Z,98961.70
2018-03-28T17:17:59.892Z,98964.30
2018-03-28T17:20:27.441Z,98964.93
2018-03-28T17:22:54.950Z,98971.22
2018-03-28T17:25:22.445Z,98972.47
2018-03-28T17:27:50.123Z,98971.98
2018-03-28T17:30:18.458Z,98968.08
2018-03-28T17:32:45.961Z,98961.77
2018-03-28T17:35:13.517Z,98954.58
2018-03-28T17:37:41.048Z,98953.02
2018-03-28T17:40:09.295Z,98957.25
2018-03-28T17:42:36.813Z,98959.39
2018-03-28T17:45:04.400Z,98953.52
2018-03-28T17:47:31.849Z,98952.27
2018-03-28T17:49:59.331Z,98955.40
2018-03-28T17:52:26.830Z,98954.44
2018-03-28T17:54:54.335Z,98959.06
2018-03-28T17:57:21.874Z,98962.45
2018-03-28T17:59:49.391Z,98963.45
2018-03-28T18:02:16.863Z,98965.16
2018-03-28T18:04:44.414Z,98963.34
2018-03-28T18:07:12.664Z,98962.59
2018-03-28T18:09:40.231Z,98957.42
2018-03-28T18:12:07.809Z,98958.72
2018-03-28T18:14:35.894Z,98947.64
2018-03-28T18:17:03.441Z,98950.70
2018-03-28T18:19:32.152Z,98947.30
2018-03-28T18:21:59.718Z,98938.97
2018-03-28T18:24:28.669Z,98933.50
2018-03-28T18:26:56.211Z,98935.70
2018-03-28T18:29:23.682Z,98934.86
2018-03-28T18:31:51.186Z,98937.80
2018-03-28T18:34:18.663Z,98932.32
2018-03-28T18:36:46.194Z,98929.41
2018-03-28T18:39:13.733Z,98935.17
2018-03-28T18:41:41.223Z,98935.75
2018-03-28T18:44:08.733Z,98940.05
2018-03-28T18:46:36.239Z,98939.09
2018-03-28T18:49:03.710Z,98929.66
2018-03-28T18:51:31.205Z,98903.57
2018-03-28T18:53:58.703Z,98901.82
2018-03-28T18:56:26.186Z,98895.42
2018-03-28T18:58:53.662Z,98899.73
2018-03-28T19:01:21.162Z,98884.08
2018-03-28T19:03:48.668Z,98879.06
2018-03-28T19:06:16.185Z,98868.95
2018-03-28T19:08:43.690Z,98851.25
2018-03-28T19:11:11.182Z,98835.63
2018-03-28T19:13:38.722Z,98822.53
2018-03-28T19:16:06.182Z,98816.64
2018-03-28T19:18:33.688Z,98802.27
2018-03-28T19:21:01.214Z,98803.60
2018-03-28T19:23:28.744Z,98812.40
2018-03-28T19:25:56.235Z,98795.52
2018-03-28T19:28:23.751Z,98793.73
2018-03-28T19:30:51.249Z,98792.81
2018-03-28T19:33:27.479Z,98786.03
2018-03-28T19:50:24.273Z,98762.88
2018-03-28T19:52:51.849Z,98757.34
2018-03-28T19:55:19.384Z,98752.31
2018-03-28T19:57:46.879Z,98747.24
2018-03-28T20:00:14.385Z,98741.71
2018-03-28T20:02:41.954Z,98754.36
2018-03-28T20:05:09.487Z,98748.44
2018-03-28T20:07:36.999Z,98739.15
2018-03-28T20:10:04.555Z,98739.98
2018-03-28T20:12:32.150Z,98730.78
2018-03-28T20:14:59.676Z,98726.25
2018-03-28T20:17:27.199Z,98720.27
2018-03-28T20:19:54.703Z,98716.48
2018-03-28T20:22:22.200Z,98716.12
2018-03-28T20:24:49.708Z,98713.14
2018-03-28T20:27:17.231Z,98705.18
2018-03-28T20:29:44.772Z,98695.02
2018-03-28T20:32:12.275Z,98694.24
2018-03-28T20:34:39.794Z,98681.16
2018-03-28T20:37:07.345Z,98675.66
2018-03-28T20:39:34.869Z,98671.86
2018-03-28T20:42:02.402Z,98671.39
2018-03-28T20:44:29.987Z,98668.42
2018-03-28T20:46:57.493Z,98659.59
2018-03-28T20:49:25.032Z,98665.86
2018-03-28T20:51:52.537Z,98660.33
2018-03-28T20:54:20.041Z,98646.30
2018-03-28T20:56:47.578Z,98654.03
2018-03-28T20:59:15.079Z,98650.15
2018-03-28T21:01:42.586Z,98620.60
2018-03-28T21:04:10.091Z,98640.42
2018-03-28T21:06:37.611Z,98621.84
2018-03-28T21:09:05.138Z,98621.02
2018-03-28T21:11:32.690Z,98614.19
2018-03-28T21:14:00.261Z,98617.08
2018-03-28T21:16:27.762Z,98607.74
2018-03-28T21:18:55.317Z,98617.38
2018-03-28T21:21:22.857Z,98615.76
2018-03-28T21:23:50.349Z,98619.91
2018-03-28T21:26:17.877Z,98603.00
2018-03-28T21:28:45.394Z,98609.75
2018-03-28T21:31:12.941Z,98611.92
2018-03-28T21:33:40.472Z,98593.42
2018-03-28T21:36:08.072Z,98593.09
2018-03-28T21:38:35.704Z,98578.30
2018-03-28T21:41:03.215Z,98576.95
2018-03-28T21:43:30.777Z,98567.56
2018-03-28T21:45:58.288Z,98566.20
2018-03-28T21:48:25.869Z,98571.77
2018-03-28T21:50:53.428Z,98565.50
2018-03-28T21:53:20.952Z,98568.88
2018-03-28T21:55:48.550Z,98555.74
2018-03-28T21:58:16.101Z,98548.09
2018-03-28T22:00:43.663Z,98549.73
2018-03-28T22:03:11.177Z,98543.34
2018-03-28T22:05:38.674Z,98534.92
2018-03-28T22:08:06.170Z,98527.70
2018-03-28T22:10:33.685Z,98525.23
2018-03-28T22:13:01.194Z,98519.69
2018-03-28T22:15:28.710Z,98523.48
2018-03-28T22:17:56.250Z,98522.60
2018-03-28T22:20:23.741Z,98524.07
2018-03-28T22:22:51.244Z,98514.02
2018-03-28T22:25:18.767Z,98525.39
2018-03-28T22:27:46.300Z,98523.66
2018-03-28T22:30:13.831Z,98514.66
2018-03-28T22:32:41.321Z,98525.91
2018-03-28T22:35:08.817Z,98521.61
2018-03-28T22:37:36.307Z,98517.69
2018-03-28T22:40:03.808Z,98517.52
2018-03-28T22:42:31.321Z,98515.81
2018-03-28T22:44:58.821Z,98522.50
2018-03-28T22:47:26.372Z,98520.44
2018-03-28T22:49:53.897Z,98518.45
2018-03-28T22:52:21.392Z,98527.31
2018-03-28T22:54:48.921Z,98528.11
2018-03-28T22:57:16.415Z,98518.76
2018-03-28T22:59:43.948Z,98518.41
2018-03-28T23:02:11.492Z,98517.59
2018-03-28T23:04:38.989Z,98512.52
2018-03-28T23:07:06.493Z,98502.82
2018-03-28T23:09:34.019Z,98505.70
2018-03-28T23:12:01.544Z,98513.09
2018-03-28T23:14:29.056Z,98520.70
2018-03-28T23:16:56.564Z,98519.33
2018-03-28T23:19:24.082Z,98525.09
2018-03-28T23:21:51.609Z,98533.81
2018-03-28T23:24:19.119Z,98535.84
2018-03-28T23:26:46.655Z,98542.46
2018-03-28T23:29:14.239Z,98552.34
2018-03-28T23:31:42.024Z,98552.80
2018-03-28T23:34:09.525Z,98557.66
2018-03-28T23:36:37.108Z,98565.33
2018-03-28T23:39:04.634Z,98572.71
2018-03-28T23:41:32.143Z,98586.84
2018-03-28T23:43:59.663Z,98591.97
2018-03-28T23:46:27.202Z,98593.16
2018-03-28T23:48:54.711Z,98602.66
2018-03-28T23:51:22.249Z,98612.53
2018-03-28T23:53:49.776Z,98622.33
2018-03-28T23:56:17.294Z,98623.60
2018-03-28T23:58:44.819Z,98632.20
